Spacecraft Satellite overpass computed based on SGP4 code. Updated every day at 2:25 LT
Spacecraft : Terra    
         GMT                             Satellite      Satellite     Solar          Solar         Scat ang       
  year-mo-da hr:mn:sc    elevation     azimuth    elevation   azimuth    (bk=180)     
  2019-06-17 09:25:34     64.9            102.2          60.4           147.2         159.3
  2019-06-17 11:02:53     20.4            300.9          62.9           195.0         101.1
  2019-06-17 18:58:34     18.9             58.2          -2.1           312.2        -999.0
  2019-06-17 20:35:50     71.2            257.1         -11.7           332.5        -999.0
Spacecraft : Aqua    
         GMT                             Satellite      Satellite     Solar          Solar         Scat ang       
  year-mo-da hr:mn:sc    elevation     azimuth    elevation   azimuth    (bk=180)     
  2019-06-17 00:00:20     35.0             96.5         -13.7            20.6        -999.0
  2019-06-17 01:38:04     34.1            294.9          -5.6            41.8        -999.0
  2019-06-17 09:33:54     11.3             51.9          61.1           150.9          95.6
  2019-06-17 11:10:46     63.7             71.4          62.5           198.8         132.1
  2019-06-17 12:48:56     18.7            269.8          52.6           237.4         137.8
  2019-06-17 23:04:46     11.8             85.9         -15.9             7.5        -999.0
Spacecraft : CALIPSO    
         GMT                             Satellite      Satellite     Solar          Solar         Scat ang       
  year-mo-da hr:mn:sc    elevation     azimuth    elevation   azimuth    (bk=180)     
  2019-06-17 01:20:55     61.3            288.9          -7.3            38.2        -999.0
  2019-06-17 02:57:26     10.6            308.3           3.8            57.2          72.2
  2019-06-17 10:51:37     33.0             65.0          63.3           189.3         105.9
  2019-06-17 12:28:59     35.0            263.4          55.2           231.0         150.0
Spacecraft : CloudSat    
         GMT                             Satellite      Satellite     Solar          Solar         Scat ang       
  year-mo-da hr:mn:sc    elevation     azimuth    elevation   azimuth    (bk=180)     
  2019-06-17 01:21:31     61.4            288.9          -7.3            38.4        -999.0
  2019-06-17 02:58:02     10.6            308.2           3.9            57.3          72.1
  2019-06-17 10:52:13     33.0             65.0          63.2           189.6         105.7
  2019-06-17 12:29:35     35.1            263.4          55.1           231.2         150.2
Spacecraft : ISS    
         GMT                             Satellite      Satellite     Solar          Solar         Scat ang       
  year-mo-da hr:mn:sc    elevation     azimuth    elevation   azimuth    (bk=180)     
  2019-06-17 07:24:09     15.7            139.4          44.8           108.1         140.8
  2019-06-17 09:00:21     64.4            157.3          57.9           137.0         168.3
  2019-06-17 10:37:04     64.0            357.1          63.5           181.9         127.6
  2019-06-17 12:13:52     86.8            196.6          57.0           225.7         149.8
  2019-06-17 13:50:15     24.0            215.6          43.6           253.7         143.3